createdAt,value
2022-10-18T03:54:18.884Z,101812.72
2022-10-18T03:57:21.871Z,101813.13
2022-10-18T04:00:24.502Z,101815.56
2022-10-18T04:03:27.380Z,101825.09
2022-10-18T04:06:29.840Z,101809.25
2022-10-18T04:09:32.645Z,101801.09
2022-10-18T04:12:35.120Z,101807.81
2022-10-18T04:15:37.872Z,101807.22
2022-10-18T04:18:40.317Z,101810.25
2022-10-18T04:21:43.168Z,101800.03
2022-10-18T04:24:45.661Z,101799.97
2022-10-18T04:27:48.360Z,101793.97
2022-10-18T04:30:54.229Z,101796.16
2022-10-18T04:33:57.000Z,101796.28
2022-10-18T04:36:59.533Z,101792.75
2022-10-18T04:40:02.371Z,101794.47
2022-10-18T04:43:04.778Z,101791.78
2022-10-18T04:46:07.577Z,101795.53
2022-10-18T04:49:10.088Z,101788.56
2022-10-18T04:52:13.452Z,101783.06
2022-10-18T04:55:15.983Z,101779.50
2022-10-18T04:58:19.825Z,101771.63
2022-10-18T05:01:22.363Z,101783.44
2022-10-18T05:04:25.202Z,101767.88
2022-10-18T05:07:27.634Z,101778.34
2022-10-18T05:10:32.707Z,101776.03
2022-10-18T05:13:35.122Z,101779.56
2022-10-18T05:16:37.779Z,101784.22
2022-10-18T05:19:40.770Z,101774.31
2022-10-18T05:22:43.569Z,101782.97
2022-10-18T05:25:46.337Z,101785.41
2022-10-18T05:28:50.590Z,101780.69
2022-10-18T05:31:53.160Z,101786.37
2022-10-18T05:34:55.896Z,101790.50
2022-10-18T05:37:58.391Z,101788.22
2022-10-18T05:41:04.548Z,101789.56
2022-10-18T05:44:07.329Z,101787.81
2022-10-18T05:47:10.055Z,101787.66
2022-10-18T05:50:12.683Z,101785.25
2022-10-18T05:53:35.743Z,101785.69
2022-10-18T05:59:47.195Z,101787.00
2022-10-18T06:02:49.784Z,101786.63
2022-10-18T06:05:52.589Z,101788.38
2022-10-18T06:08:55.298Z,101792.47
2022-10-18T06:11:58.073Z,101791.34
2022-10-18T06:15:00.642Z,101790.72
2022-10-18T06:18:03.403Z,101786.53
2022-10-18T06:21:06.123Z,101789.47
2022-10-18T06:24:08.922Z,101794.88
2022-10-18T06:27:11.457Z,101803.84
2022-10-18T06:30:15.628Z,101804.59
2022-10-18T06:33:18.106Z,101808.12
2022-10-18T06:36:24.087Z,101806.16
2022-10-18T06:39:26.816Z,101811.41
2022-10-18T06:42:32.236Z,101814.16
2022-10-18T06:45:34.967Z,101803.41
2022-10-18T06:48:38.937Z,101804.22
2022-10-18T06:51:44.730Z,101804.53
2022-10-18T06:54:47.470Z,101803.34
2022-10-18T06:57:49.985Z,101806.31
2022-10-18T07:00:52.765Z,101814.06
2022-10-18T07:03:56.037Z,101803.00
2022-10-18T07:06:58.834Z,101809.22
2022-10-18T07:10:01.244Z,101810.38
2022-10-18T07:13:27.270Z,101808.47
2022-10-18T07:16:26.642Z,101809.41
2022-10-18T07:19:29.412Z,101798.69
2022-10-18T07:22:31.837Z,101793.78
2022-10-18T07:25:35.397Z,101795.47
2022-10-18T07:28:37.869Z,101789.03
2022-10-18T07:31:41.038Z,101795.28
2022-10-18T07:34:43.613Z,101792.03
2022-10-18T07:37:46.345Z,101786.91
2022-10-18T07:40:48.998Z,101780.22
2022-10-18T07:43:52.927Z,101779.06
2022-10-18T07:46:55.428Z,101783.63
2022-10-18T07:50:02.409Z,101775.03
2022-10-18T07:53:04.908Z,101776.81
2022-10-18T07:56:15.869Z,101772.94
2022-10-18T07:59:18.390Z,101777.38
2022-10-18T08:02:21.100Z,101764.22
2022-10-18T08:05:24.746Z,101764.59
2022-10-18T08:08:27.935Z,101753.75
2022-10-18T08:11:30.689Z,101758.34
2022-10-18T08:14:33.177Z,101753.91
2022-10-18T08:17:35.942Z,101750.41
2022-10-18T08:20:43.752Z,101755.78
2022-10-18T08:23:47.511Z,101743.38
2022-10-18T08:26:50.538Z,101742.31
2022-10-18T08:29:53.374Z,101738.91
2022-10-18T08:32:55.867Z,101733.59
2022-10-18T08:36:00.828Z,101732.81
2022-10-18T08:39:03.706Z,101720.69
2022-10-18T08:42:39.803Z,101715.97
2022-10-18T08:45:44.251Z,101716.38
2022-10-18T08:48:54.124Z,101710.94
2022-10-18T08:51:58.128Z,101709.75
2022-10-18T08:55:17.286Z,101709.09
2022-10-18T08:58:21.521Z,101703.31
2022-10-18T09:01:24.230Z,101690.78
2022-10-18T09:04:49.238Z,101690.13
2022-10-18T09:08:11.540Z,101688.34
2022-10-18T09:11:35.752Z,101685.97
2022-10-18T09:14:47.240Z,101687.16
2022-10-18T09:18:10.539Z,101680.91
2022-10-18T09:21:22.777Z,101673.59
2022-10-18T09:24:43.244Z,101667.94
2022-10-18T09:27:55.186Z,101665.22
2022-10-18T09:31:18.930Z,101667.75
2022-10-18T09:34:50.678Z,101660.59
2022-10-18T09:38:00.533Z,101660.81
2022-10-18T09:41:13.703Z,101652.41
2022-10-18T09:44:22.505Z,101653.13
2022-10-18T09:47:44.754Z,101649.28
2022-10-18T09:50:54.821Z,101639.41
2022-10-18T09:54:19.277Z,101631.25
2022-10-18T09:57:37.610Z,101627.25
2022-10-18T10:00:48.387Z,101626.37
2022-10-18T10:03:51.980Z,101626.78
2022-10-18T10:06:56.694Z,101621.84
2022-10-18T10:10:08.474Z,101610.34
2022-10-18T10:13:26.303Z,101605.31
2022-10-18T10:16:29.179Z,101600.13
2022-10-18T10:19:38.301Z,101597.22
2022-10-18T10:22:42.514Z,101596.97
2022-10-18T10:25:51.814Z,101584.62
2022-10-18T10:28:57.527Z,101581.25
2022-10-18T10:32:04.289Z,101576.66
2022-10-18T10:35:41.297Z,101579.16
2022-10-18T10:39:16.162Z,101573.03
2022-10-18T10:42:19.188Z,101569.56
2022-10-18T10:45:23.696Z,101561.16
2022-10-18T10:48:33.001Z,101548.53
2022-10-18T10:51:38.978Z,101547.88
2022-10-18T10:54:50.394Z,101548.75
2022-10-18T10:57:56.303Z,101545.34
2022-10-18T11:01:18.423Z,101538.53
2022-10-18T11:04:31.939Z,101538.69
2022-10-18T11:07:44.205Z,101535.66
2022-10-18T11:11:13.714Z,101525.44
2022-10-18T11:14:26.590Z,101520.25
2022-10-18T11:17:59.829Z,101516.50
2022-10-18T11:21:15.943Z,101508.34
2022-10-18T11:24:18.613Z,101508.47
2022-10-18T11:27:43.090Z,101494.41
2022-10-18T11:30:50.199Z,101497.09
2022-10-18T11:34:20.968Z,101493.63
2022-10-18T11:37:48.523Z,101485.94
2022-10-18T11:41:30.550Z,101476.00
2022-10-18T11:44:50.071Z,101469.59
2022-10-18T11:48:13.505Z,101471.13
2022-10-18T11:51:29.766Z,101459.28
2022-10-18T11:55:03.294Z,101457.91
2022-10-18T11:58:31.577Z,101447.25
2022-10-18T12:02:11.844Z,101438.38
2022-10-18T12:05:23.989Z,101434.63
2022-10-18T12:08:31.636Z,101424.59
2022-10-18T12:11:47.186Z,101424.31
2022-10-18T12:14:50.200Z,101417.94
2022-10-18T12:18:01.978Z,101407.97
2022-10-18T12:21:06.451Z,101412.66
2022-10-18T12:24:16.093Z,101390.16
2022-10-18T12:27:23.640Z,101399.09
2022-10-18T12:30:47.271Z,101391.81
2022-10-18T12:33:55.581Z,101395.03
2022-10-18T12:37:17.152Z,101381.47
2022-10-18T12:40:25.904Z,101376.56
2022-10-18T12:43:36.854Z,101373.56
2022-10-18T12:47:00.030Z,101365.28
2022-10-18T12:50:08.432Z,101357.56
2022-10-18T12:53:19.031Z,101365.28
2022-10-18T12:56:27.776Z,101356.44
2022-10-18T12:59:30.146Z,101352.25
2022-10-18T13:02:33.393Z,101348.53
2022-10-18T13:06:06.477Z,101345.06
2022-10-18T13:09:17.234Z,101346.72
2022-10-18T13:12:19.763Z,101335.91
2022-10-18T13:15:52.579Z,101336.75
2022-10-18T13:19:08.852Z,101333.62
2022-10-18T13:22:30.670Z,101330.88
2022-10-18T13:25:49.872Z,101332.63
2022-10-18T13:29:28.274Z,101331.13
2022-10-18T13:32:47.172Z,101322.84
2022-10-18T13:35:57.209Z,101324.97
2022-10-18T13:39:03.334Z,101325.91
2022-10-18T13:42:15.344Z,101330.31
2022-10-18T13:45:33.145Z,101340.56
2022-10-18T13:48:35.932Z,101334.59
2022-10-18T13:51:46.554Z,101331.91
2022-10-18T13:55:13.933Z,101321.69
2022-10-18T13:59:13.090Z,101317.06
2022-10-18T14:02:51.718Z,101321.13
2022-10-18T14:06:02.962Z,101310.00
2022-10-18T14:09:25.562Z,101301.81
2022-10-18T14:12:44.360Z,101306.22
2022-10-18T14:15:52.033Z,101300.78
2022-10-18T14:19:01.053Z,101301.87
2022-10-18T14:22:21.015Z,101291.16
2022-10-18T14:25:30.781Z,101292.66
2022-10-18T14:28:55.155Z,101295.16
2022-10-18T14:31:58.062Z,101287.41
2022-10-18T14:35:27.567Z,101291.16
2022-10-18T14:38:24.504Z,101288.06
2022-10-18T14:41:32.933Z,101280.50
2022-10-18T14:44:35.817Z,101277.56
2022-10-18T14:47:39.761Z,101271.91
2022-10-18T14:50:46.061Z,101267.06
2022-10-18T14:53:49.317Z,101266.22
2022-10-18T14:56:52.602Z,101262.25
2022-10-18T15:00:03.169Z,101254.69
2022-10-18T15:03:11.245Z,101253.63
2022-10-18T15:06:20.524Z,101244.84
2022-10-18T15:09:24.405Z,101247.37
2022-10-18T15:12:33.994Z,101245.84
2022-10-18T15:15:49.823Z,101247.13
2022-10-18T15:19:15.143Z,101241.00
2022-10-18T15:22:32.132Z,101243.25
2022-10-18T15:25:35.959Z,101244.03
2022-10-18T15:28:52.522Z,101230.31
2022-10-18T15:31:55.271Z,101228.75
2022-10-18T15:35:20.986Z,101233.31
2022-10-18T15:38:31.889Z,101233.87
2022-10-18T15:41:43.049Z,101231.47
2022-10-18T15:44:51.251Z,101230.75
2022-10-18T15:48:01.341Z,101234.16
2022-10-18T15:51:28.253Z,101227.97
2022-10-18T15:54:31.140Z,101226.78
